sensor_id;sensor_type;location;lat;lon;timestamp;temperature;humidity
27667;DHT22;15074;50.940;5.282;2022-07-23T00:01:23;17.80;99.90
27667;DHT22;15074;50.940;5.282;2022-07-23T00:03:49;17.90;99.90
27667;DHT22;15074;50.940;5.282;2022-07-23T00:06:15;17.80;99.90
27667;DHT22;15074;50.940;5.282;2022-07-23T00:08:41;17.80;99.90
27667;DHT22;15074;50.940;5.282;2022-07-23T00:11:07;17.70;99.90
27667;DHT22;15074;50.940;5.282;2022-07-23T00:13:33;17.80;99.90
27667;DHT22;15074;50.940;5.282;2022-07-23T00:15:58;17.70;99.90
27667;DHT22;15074;50.940;5.282;2022-07-23T00:18:24;17.60;99.90
27667;DHT22;15074;50.940;5.282;2022-07-23T00:20:50;17.60;99.90
27667;DHT22;15074;50.940;5.282;2022-07-23T00:23:16;17.70;99.90
27667;DHT22;15074;50.940;5.282;2022-07-23T00:25:42;17.70;99.90
27667;DHT22;15074;50.940;5.282;2022-07-23T00:28:08;17.60;99.90
27667;DHT22;15074;50.940;5.282;2022-07-23T00:30:34;17.60;99.90
27667;DHT22;15074;50.940;5.282;2022-07-23T00:33:12;17.60;99.90
27667;DHT22;15074;50.940;5.282;2022-07-23T00:35:40;17.70;99.90
27667;DHT22;15074;50.940;5.282;2022-07-23T00:38:07;17.60;99.90
27667;DHT22;15074;50.940;5.282;2022-07-23T00:40:34;17.60;99.90
27667;DHT22;15074;50.940;5.282;2022-07-23T00:43:00;17.50;99.90
27667;DHT22;15074;50.940;5.282;2022-07-23T00:45:26;17.50;99.90
27667;DHT22;15074;50.940;5.282;2022-07-23T00:47:52;17.40;99.90
27667;DHT22;15074;50.940;5.282;2022-07-23T00:50:18;17.50;99.90
27667;DHT22;15074;50.940;5.282;2022-07-23T00:52:44;17.50;99.90
27667;DHT22;15074;50.940;5.282;2022-07-23T00:55:10;17.60;99.90
27667;DHT22;15074;50.940;5.282;2022-07-23T00:57:39;17.60;99.90
27667;DHT22;15074;50.940;5.282;2022-07-23T01:00:07;17.60;99.90
27667;DHT22;15074;50.940;5.282;2022-07-23T01:02:33;17.50;99.90
27667;DHT22;15074;50.940;5.282;2022-07-23T01:04:59;17.50;99.90
27667;DHT22;15074;50.940;5.282;2022-07-23T01:07:25;17.60;99.90
27667;DHT22;15074;50.940;5.282;2022-07-23T01:09:51;17.50;99.90
27667;DHT22;15074;50.940;5.282;2022-07-23T01:12:17;17.60;99.90
27667;DHT22;15074;50.940;5.282;2022-07-23T01:14:42;17.50;99.90
27667;DHT22;15074;50.940;5.282;2022-07-23T01:17:08;17.50;99.90
27667;DHT22;15074;50.940;5.282;2022-07-23T01:19:34;17.40;99.90
27667;DHT22;15074;50.940;5.282;2022-07-23T01:22:02;17.30;99.90
27667;DHT22;15074;50.940;5.282;2022-07-23T01:24:28;17.20;99.90
27667;DHT22;15074;50.940;5.282;2022-07-23T01:26:53;17.20;99.90
27667;DHT22;15074;50.940;5.282;2022-07-23T01:29:19;17.10;99.90
27667;DHT22;15074;50.940;5.282;2022-07-23T01:31:47;17.10;99.90
27667;DHT22;15074;50.940;5.282;2022-07-23T01:34:13;17.10;99.90
27667;DHT22;15074;50.940;5.282;2022-07-23T01:36:39;17.20;99.90
27667;DHT22;15074;50.940;5.282;2022-07-23T01:39:05;17.30;99.90
27667;DHT22;15074;50.940;5.282;2022-07-23T01:41:31;17.30;99.90
27667;DHT22;15074;50.940;5.282;2022-07-23T01:43:57;17.20;99.90
27667;DHT22;15074;50.940;5.282;2022-07-23T01:46:23;17.20;99.90
27667;DHT22;15074;50.940;5.282;2022-07-23T01:48:48;17.10;99.90
27667;DHT22;15074;50.940;5.282;2022-07-23T01:51:14;17.10;99.90
27667;DHT22;15074;50.940;5.282;2022-07-23T01:53:40;17.20;99.90
27667;DHT22;15074;50.940;5.282;2022-07-23T01:56:06;17.20;99.90
27667;DHT22;15074;50.940;5.282;2022-07-23T01:58:31;17.10;99.90
27667;DHT22;15074;50.940;5.282;2022-07-23T02:00:57;16.90;99.90
27667;DHT22;15074;50.940;5.282;2022-07-23T02:03:23;16.90;99.90
27667;DHT22;15074;50.940;5.282;2022-07-23T02:05:49;17.00;99.90
27667;DHT22;15074;50.940;5.282;2022-07-23T02:08:15;17.10;99.90
27667;DHT22;15074;50.940;5.282;2022-07-23T02:10:41;17.10;99.90
27667;DHT22;15074;50.940;5.282;2022-07-23T02:13:06;17.10;99.90
27667;DHT22;15074;50.940;5.282;2022-07-23T02:15:33;17.10;99.90
27667;DHT22;15074;50.940;5.282;2022-07-23T02:17:59;17.10;99.90
27667;DHT22;15074;50.940;5.282;2022-07-23T02:20:24;17.00;99.90
27667;DHT22;15074;50.940;5.282;2022-07-23T02:22:50;16.90;99.90
27667;DHT22;15074;50.940;5.282;2022-07-23T02:25:16;16.90;99.90
27667;DHT22;15074;50.940;5.282;2022-07-23T02:27:42;16.90;99.90
27667;DHT22;15074;50.940;5.282;2022-07-23T02:30:08;16.70;99.90
27667;DHT22;15074;50.940;5.282;2022-07-23T02:32:34;16.80;99.90
27667;DHT22;15074;50.940;5.282;2022-07-23T02:35:00;16.80;99.90
27667;DHT22;15074;50.940;5.282;2022-07-23T02:37:26;16.80;99.90
27667;DHT22;15074;50.940;5.282;2022-07-23T02:39:52;16.70;99.90
27667;DHT22;15074;50.940;5.282;2022-07-23T02:42:18;16.70;99.90
27667;DHT22;15074;50.940;5.282;2022-07-23T02:44:44;16.80;99.90
27667;DHT22;15074;50.940;5.282;2022-07-23T02:47:09;16.80;99.90
27667;DHT22;15074;50.940;5.282;2022-07-23T02:49:35;16.80;99.90
27667;DHT22;15074;50.940;5.282;2022-07-23T02:52:01;16.50;99.90
27667;DHT22;15074;50.940;5.282;2022-07-23T02:54:27;16.30;99.90
27667;DHT22;15074;50.940;5.282;2022-07-23T02:56:53;16.10;99.90
27667;DHT22;15074;50.940;5.282;2022-07-23T02:59:18;16.00;99.90
27667;DHT22;15074;50.940;5.282;2022-07-23T03:01:45;15.80;99.90
27667;DHT22;15074;50.940;5.282;2022-07-23T03:04:11;15.80;99.90
27667;DHT22;15074;50.940;5.282;2022-07-23T03:06:36;15.90;99.90
27667;DHT22;15074;50.940;5.282;2022-07-23T03:09:03;15.90;99.90
27667;DHT22;15074;50.940;5.282;2022-07-23T03:11:29;15.80;99.90
27667;DHT22;15074;50.940;5.282;2022-07-23T03:13:55;15.50;99.90
27667;DHT22;15074;50.940;5.282;2022-07-23T03:16:20;15.50;99.90
27667;DHT22;15074;50.940;5.282;2022-07-23T03:18:46;15.50;99.90
27667;DHT22;15074;50.940;5.282;2022-07-23T03:21:12;15.70;99.90
27667;DHT22;15074;50.940;5.282;2022-07-23T03:23:38;15.70;99.90
27667;DHT22;15074;50.940;5.282;2022-07-23T03:26:04;15.80;99.90
27667;DHT22;15074;50.940;5.282;2022-07-23T03:28:30;15.70;99.90
27667;DHT22;15074;50.940;5.282;2022-07-23T03:30:56;15.60;99.90
27667;DHT22;15074;50.940;5.282;2022-07-23T03:33:22;15.60;99.90
27667;DHT22;15074;50.940;5.282;2022-07-23T03:35:48;15.50;99.90
27667;DHT22;15074;50.940;5.282;2022-07-23T03:38:14;15.40;99.90
27667;DHT22;15074;50.940;5.282;2022-07-23T03:40:39;15.40;99.90
27667;DHT22;15074;50.940;5.282;2022-07-23T03:43:05;15.50;99.90
27667;DHT22;15074;50.940;5.282;2022-07-23T03:45:31;15.40;99.90
27667;DHT22;15074;50.940;5.282;2022-07-23T03:47:57;15.40;99.90
27667;DHT22;15074;50.940;5.282;2022-07-23T03:50:23;15.30;99.90
27667;DHT22;15074;50.940;5.282;2022-07-23T03:52:49;15.30;99.90
27667;DHT22;15074;50.940;5.282;2022-07-23T03:55:15;15.20;99.90
27667;DHT22;15074;50.940;5.282;2022-07-23T03:57:41;15.20;99.90
27667;DHT22;15074;50.940;5.282;2022-07-23T04:00:07;15.10;99.90
27667;DHT22;15074;50.940;5.282;2022-07-23T04:02:35;15.10;99.90
27667;DHT22;15074;50.940;5.282;2022-07-23T04:05:01;15.20;99.90
27667;DHT22;15074;50.940;5.282;2022-07-23T04:07:27;15.20;99.90
27667;DHT22;15074;50.940;5.282;2022-07-23T04:09:53;15.20;99.90
27667;DHT22;15074;50.940;5.282;2022-07-23T04:12:18;15.20;99.90
27667;DHT22;15074;50.940;5.282;2022-07-23T04:14:44;15.30;99.90
27667;DHT22;15074;50.940;5.282;2022-07-23T04:17:11;15.30;99.90
27667;DHT22;15074;50.940;5.282;2022-07-23T04:19:37;15.40;99.90
27667;DHT22;15074;50.940;5.282;2022-07-23T04:22:06;15.40;99.90
27667;DHT22;15074;50.940;5.282;2022-07-23T04:24:31;15.50;99.90
27667;DHT22;15074;50.940;5.282;2022-07-23T04:26:57;15.50;99.90
27667;DHT22;15074;50.940;5.282;2022-07-23T04:29:23;15.40;99.90
27667;DHT22;15074;50.940;5.282;2022-07-23T04:31:49;15.30;99.90
27667;DHT22;15074;50.940;5.282;2022-07-23T04:34:14;15.40;99.90
27667;DHT22;15074;50.940;5.282;2022-07-23T04:36:40;15.50;99.90
27667;DHT22;15074;50.940;5.282;2022-07-23T04:39:06;15.90;99.90
27667;DHT22;15074;50.940;5.282;2022-07-23T04:41:32;16.30;99.90
27667;DHT22;15074;50.940;5.282;2022-07-23T04:43:57;16.80;99.90
27667;DHT22;15074;50.940;5.282;2022-07-23T04:46:23;17.20;99.90
27667;DHT22;15074;50.940;5.282;2022-07-23T04:48:49;17.60;99.90
27667;DHT22;15074;50.940;5.282;2022-07-23T04:51:14;17.90;99.90
27667;DHT22;15074;50.940;5.282;2022-07-23T04:53:40;18.30;99.90
27667;DHT22;15074;50.940;5.282;2022-07-23T04:56:06;18.70;99.90
27667;DHT22;15074;50.940;5.282;2022-07-23T04:58:32;19.20;99.90
27667;DHT22;15074;50.940;5.282;2022-07-23T05:00:57;19.30;99.90
27667;DHT22;15074;50.940;5.282;2022-07-23T05:03:23;19.70;99.90
27667;DHT22;15074;50.940;5.282;2022-07-23T05:05:49;20.00;99.90
27667;DHT22;15074;50.940;5.282;2022-07-23T05:08:15;20.10;99.90
27667;DHT22;15074;50.940;5.282;2022-07-23T05:10:41;20.30;99.90
27667;DHT22;15074;50.940;5.282;2022-07-23T05:13:06;20.80;99.90
27667;DHT22;15074;50.940;5.282;2022-07-23T05:15:32;21.20;99.90
27667;DHT22;15074;50.940;5.282;2022-07-23T05:17:58;21.50;99.90
27667;DHT22;15074;50.940;5.282;2022-07-23T05:20:23;21.60;99.90
27667;DHT22;15074;50.940;5.282;2022-07-23T05:22:49;21.80;99.90
27667;DHT22;15074;50.940;5.282;2022-07-23T05:25:15;21.90;99.90
27667;DHT22;15074;50.940;5.282;2022-07-23T05:27:40;22.10;99.90
27667;DHT22;15074;50.940;5.282;2022-07-23T05:30:06;22.20;99.90
27667;DHT22;15074;50.940;5.282;2022-07-23T05:32:32;22.00;99.90
27667;DHT22;15074;50.940;5.282;2022-07-23T05:34:58;21.80;99.90
27667;DHT22;15074;50.940;5.282;2022-07-23T05:37:24;21.80;99.90
27667;DHT22;15074;50.940;5.282;2022-07-23T05:39:49;22.30;99.90
27667;DHT22;15074;50.940;5.282;2022-07-23T05:42:15;22.80;99.90
27667;DHT22;15074;50.940;5.282;2022-07-23T05:44:40;23.40;99.90
27667;DHT22;15074;50.940;5.282;2022-07-23T05:47:06;23.20;99.90
27667;DHT22;15074;50.940;5.282;2022-07-23T05:49:31;23.50;99.90
27667;DHT22;15074;50.940;5.282;2022-07-23T05:51:57;23.60;99.90
27667;DHT22;15074;50.940;5.282;2022-07-23T05:54:23;24.00;99.90
27667;DHT22;15074;50.940;5.282;2022-07-23T05:56:48;24.40;99.90
27667;DHT22;15074;50.940;5.282;2022-07-23T05:59:15;24.80;99.90
27667;DHT22;15074;50.940;5.282;2022-07-23T06:01:41;25.10;99.90
27667;DHT22;15074;50.940;5.282;2022-07-23T06:04:07;25.70;99.90
27667;DHT22;15074;50.940;5.282;2022-07-23T06:06:33;25.60;99.90
27667;DHT22;15074;50.940;5.282;2022-07-23T06:08:58;25.80;99.90
27667;DHT22;15074;50.940;5.282;2022-07-23T06:11:24;25.90;99.90
27667;DHT22;15074;50.940;5.282;2022-07-23T06:13:50;26.30;99.90
27667;DHT22;15074;50.940;5.282;2022-07-23T06:16:15;26.70;99.90
27667;DHT22;15074;50.940;5.282;2022-07-23T06:18:41;26.60;99.90
27667;DHT22;15074;50.940;5.282;2022-07-23T06:21:06;25.10;99.90
27667;DHT22;15074;50.940;5.282;2022-07-23T06:23:32;24.00;99.90
27667;DHT22;15074;50.940;5.282;2022-07-23T06:25:58;24.30;99.90
27667;DHT22;15074;50.940;5.282;2022-07-23T06:28:23;25.30;99.90
27667;DHT22;15074;50.940;5.282;2022-07-23T06:30:49;25.70;99.90
27667;DHT22;15074;50.940;5.282;2022-07-23T06:33:14;27.00;99.90
27667;DHT22;15074;50.940;5.282;2022-07-23T06:35:40;28.10;99.90
27667;DHT22;15074;50.940;5.282;2022-07-23T06:38:06;29.00;99.90
27667;DHT22;15074;50.940;5.282;2022-07-23T06:40:32;29.20;99.90
27667;DHT22;15074;50.940;5.282;2022-07-23T06:42:57;29.60;99.90
27667;DHT22;15074;50.940;5.282;2022-07-23T06:45:23;29.90;99.90
27667;DHT22;15074;50.940;5.282;2022-07-23T06:47:49;30.20;99.90
27667;DHT22;15074;50.940;5.282;2022-07-23T06:50:15;30.00;99.90
27667;DHT22;15074;50.940;5.282;2022-07-23T06:52:40;31.20;99.90
27667;DHT22;15074;50.940;5.282;2022-07-23T06:55:06;30.80;99.90
27667;DHT22;15074;50.940;5.282;2022-07-23T06:57:32;30.30;99.90
27667;DHT22;15074;50.940;5.282;2022-07-23T06:59:57;30.70;99.90
27667;DHT22;15074;50.940;5.282;2022-07-23T07:02:23;31.80;99.80
27667;DHT22;15074;50.940;5.282;2022-07-23T07:04:49;31.90;98.70
27667;DHT22;15074;50.940;5.282;2022-07-23T07:07:15;30.60;99.40
27667;DHT22;15074;50.940;5.282;2022-07-23T07:09:40;29.80;99.90
27667;DHT22;15074;50.940;5.282;2022-07-23T07:12:06;29.60;99.90
27667;DHT22;15074;50.940;5.282;2022-07-23T07:14:32;30.90;99.90
27667;DHT22;15074;50.940;5.282;2022-07-23T07:16:57;31.50;99.40
27667;DHT22;15074;50.940;5.282;2022-07-23T07:19:23;32.20;97.90
27667;DHT22;15074;50.940;5.282;2022-07-23T07:21:49;31.50;96.70
27667;DHT22;15074;50.940;5.282;2022-07-23T07:24:14;28.90;98.80
27667;DHT22;15074;50.940;5.282;2022-07-23T07:26:40;27.70;99.90
27667;DHT22;15074;50.940;5.282;2022-07-23T07:29:06;28.50;99.90
27667;DHT22;15074;50.940;5.282;2022-07-23T07:31:32;28.00;99.90
27667;DHT22;15074;50.940;5.282;2022-07-23T07:33:58;28.60;99.90
27667;DHT22;15074;50.940;5.282;2022-07-23T07:36:23;27.30;99.90
27667;DHT22;15074;50.940;5.282;2022-07-23T07:38:50;28.20;99.90
27667;DHT22;15074;50.940;5.282;2022-07-23T07:41:17;27.60;99.90
27667;DHT22;15074;50.940;5.282;2022-07-23T07:43:48;27.80;99.90
27667;DHT22;15074;50.940;5.282;2022-07-23T07:46:13;27.70;99.90
27667;DHT22;15074;50.940;5.282;2022-07-23T07:48:39;27.50;99.90
27667;DHT22;15074;50.940;5.282;2022-07-23T07:51:05;27.60;99.90
27667;DHT22;15074;50.940;5.282;2022-07-23T07:53:31;27.50;99.90
27667;DHT22;15074;50.940;5.282;2022-07-23T07:55:56;26.40;99.90
27667;DHT22;15074;50.940;5.282;2022-07-23T07:58:22;27.30;99.90
27667;DHT22;15074;50.940;5.282;2022-07-23T08:00:48;28.90;99.90
27667;DHT22;15074;50.940;5.282;2022-07-23T08:03:13;30.90;99.90
27667;DHT22;15074;50.940;5.282;2022-07-23T08:05:39;31.60;98.20
27667;DHT22;15074;50.940;5.282;2022-07-23T08:08:05;33.20;95.90
27667;DHT22;15074;50.940;5.282;2022-07-23T08:10:31;33.20;94.50
27667;DHT22;15074;50.940;5.282;2022-07-23T08:12:58;33.50;93.40
27667;DHT22;15074;50.940;5.282;2022-07-23T08:15:26;34.30;93.30
27667;DHT22;15074;50.940;5.282;2022-07-23T08:17:53;35.50;91.00
27667;DHT22;15074;50.940;5.282;2022-07-23T08:20:20;35.70;89.70
27667;DHT22;15074;50.940;5.282;2022-07-23T08:25:12;34.80;88.00
27667;DHT22;15074;50.940;5.282;2022-07-23T08:27:38;33.40;90.30
27667;DHT22;15074;50.940;5.282;2022-07-23T08:30:04;32.60;90.40
27667;DHT22;15074;50.940;5.282;2022-07-23T08:32:29;32.20;92.20
27667;DHT22;15074;50.940;5.282;2022-07-23T08:34:55;33.30;90.90
27667;DHT22;15074;50.940;5.282;2022-07-23T08:37:20;34.10;88.80
27667;DHT22;15074;50.940;5.282;2022-07-23T08:39:46;34.40;88.20
27667;DHT22;15074;50.940;5.282;2022-07-23T08:42:14;34.70;88.80
27667;DHT22;15074;50.940;5.282;2022-07-23T08:44:43;35.20;88.20
27667;DHT22;15074;50.940;5.282;2022-07-23T08:47:11;35.10;86.10
27667;DHT22;15074;50.940;5.282;2022-07-23T08:49:37;35.80;82.80
27667;DHT22;15074;50.940;5.282;2022-07-23T08:52:04;33.40;86.30
27667;DHT22;15074;50.940;5.282;2022-07-23T08:54:33;33.80;87.50
27667;DHT22;15074;50.940;5.282;2022-07-23T08:56:59;34.80;83.40
27667;DHT22;15074;50.940;5.282;2022-07-23T08:59:25;35.90;82.00
27667;DHT22;15074;50.940;5.282;2022-07-23T09:01:52;34.50;82.90
27667;DHT22;15074;50.940;5.282;2022-07-23T09:04:17;31.80;89.00
27667;DHT22;15074;50.940;5.282;2022-07-23T09:06:43;33.40;86.20
27667;DHT22;15074;50.940;5.282;2022-07-23T09:09:19;34.90;82.30
27667;DHT22;15074;50.940;5.282;2022-07-23T09:12:02;35.60;79.20
27667;DHT22;15074;50.940;5.282;2022-07-23T09:14:43;36.70;78.00
27667;DHT22;15074;50.940;5.282;2022-07-23T09:17:17;34.00;77.90
27667;DHT22;15074;50.940;5.282;2022-07-23T09:19:44;34.50;77.90
27667;DHT22;15074;50.940;5.282;2022-07-23T09:22:26;34.10;79.50
27667;DHT22;15074;50.940;5.282;2022-07-23T09:25:09;35.70;77.60
27667;DHT22;15074;50.940;5.282;2022-07-23T09:27:55;36.60;74.60
27667;DHT22;15074;50.940;5.282;2022-07-23T09:30:25;37.00;73.10
27667;DHT22;15074;50.940;5.282;2022-07-23T09:33:15;37.00;73.30
27667;DHT22;15074;50.940;5.282;2022-07-23T09:35:52;34.20;75.40
27667;DHT22;15074;50.940;5.282;2022-07-23T09:38:20;33.50;80.50
27667;DHT22;15074;50.940;5.282;2022-07-23T09:40:46;35.30;77.90
27667;DHT22;15074;50.940;5.282;2022-07-23T09:43:26;35.80;76.00
27667;DHT22;15074;50.940;5.282;2022-07-23T09:45:53;37.70;73.30
27667;DHT22;15074;50.940;5.282;2022-07-23T09:48:18;39.40;69.70
27667;DHT22;15074;50.940;5.282;2022-07-23T09:50:44;37.50;69.50
27667;DHT22;15074;50.940;5.282;2022-07-23T09:53:24;37.80;68.40
27667;DHT22;15074;50.940;5.282;2022-07-23T09:55:51;36.10;70.10
27667;DHT22;15074;50.940;5.282;2022-07-23T09:58:20;31.70;77.50
27667;DHT22;15074;50.940;5.282;2022-07-23T10:00:47;30.60;82.00
27667;DHT22;15074;50.940;5.282;2022-07-23T10:03:15;32.90;77.30
27667;DHT22;15074;50.940;5.282;2022-07-23T10:05:41;33.40;75.40
27667;DHT22;15074;50.940;5.282;2022-07-23T10:08:11;31.90;78.30
27667;DHT22;15074;50.940;5.282;2022-07-23T10:10:39;33.50;77.60
27667;DHT22;15074;50.940;5.282;2022-07-23T10:13:05;35.10;73.90
27667;DHT22;15074;50.940;5.282;2022-07-23T10:15:50;33.30;75.20
27667;DHT22;15074;50.940;5.282;2022-07-23T10:18:16;31.60;78.30
27667;DHT22;15074;50.940;5.282;2022-07-23T10:20:42;32.40;78.30
27667;DHT22;15074;50.940;5.282;2022-07-23T10:23:33;34.60;74.30
27667;DHT22;15074;50.940;5.282;2022-07-23T10:34:07;35.10;67.20
27667;DHT22;15074;50.940;5.282;2022-07-23T10:36:42;33.10;70.00
27667;DHT22;15074;50.940;5.282;2022-07-23T10:39:22;32.80;70.70
27667;DHT22;15074;50.940;5.282;2022-07-23T10:41:48;34.60;70.20
27667;DHT22;15074;50.940;5.282;2022-07-23T10:44:16;33.70;70.90
27667;DHT22;15074;50.940;5.282;2022-07-23T10:49:41;33.50;72.90
27667;DHT22;15074;50.940;5.282;2022-07-23T10:52:24;32.60;75.50
27667;DHT22;15074;50.940;5.282;2022-07-23T10:54:54;33.70;74.70
27667;DHT22;15074;50.940;5.282;2022-07-23T10:57:29;34.20;71.30
27667;DHT22;15074;50.940;5.282;2022-07-23T11:02:48;36.60;64.30
27667;DHT22;15074;50.940;5.282;2022-07-23T11:05:24;37.30;62.10
27667;DHT22;15074;50.940;5.282;2022-07-23T11:10:42;38.00;63.80
27667;DHT22;15074;50.940;5.282;2022-07-23T11:13:37;38.00;60.90
27667;DHT22;15074;50.940;5.282;2022-07-23T11:16:18;35.10;62.90
27667;DHT22;15074;50.940;5.282;2022-07-23T11:26:46;38.30;59.40
27667;DHT22;15074;50.940;5.282;2022-07-23T11:32:07;38.60;56.10
27667;DHT22;15074;50.940;5.282;2022-07-23T11:34:39;37.80;55.90
27667;DHT22;15074;50.940;5.282;2022-07-23T11:37:07;37.60;55.80
27667;DHT22;15074;50.940;5.282;2022-07-23T11:39:33;35.20;57.30
27667;DHT22;15074;50.940;5.282;2022-07-23T11:42:01;31.90;63.20
27667;DHT22;15074;50.940;5.282;2022-07-23T11:44:29;30.30;68.40
27667;DHT22;15074;50.940;5.282;2022-07-23T11:46:59;30.90;67.00
27667;DHT22;15074;50.940;5.282;2022-07-23T11:49:26;30.60;66.10
27667;DHT22;15074;50.940;5.282;2022-07-23T11:52:12;31.80;63.80
27667;DHT22;15074;50.940;5.282;2022-07-23T11:54:58;32.60;62.30
27667;DHT22;15074;50.940;5.282;2022-07-23T11:57:26;31.80;64.00
27667;DHT22;15074;50.940;5.282;2022-07-23T12:02:32;34.40;64.50
27667;DHT22;15074;50.940;5.282;2022-07-23T12:04:58;35.50;61.10
27667;DHT22;15074;50.940;5.282;2022-07-23T12:07:34;36.00;59.80
27667;DHT22;15074;50.940;5.282;2022-07-23T12:13:01;36.60;59.40
27667;DHT22;15074;50.940;5.282;2022-07-23T12:15:36;36.30;60.60
27667;DHT22;15074;50.940;5.282;2022-07-23T12:18:07;37.30;58.20
27667;DHT22;15074;50.940;5.282;2022-07-23T12:20:38;37.30;58.10
27667;DHT22;15074;50.940;5.282;2022-07-23T12:23:06;38.10;58.00
27667;DHT22;15074;50.940;5.282;2022-07-23T12:25:34;38.10;56.20
27667;DHT22;15074;50.940;5.282;2022-07-23T12:28:15;37.50;55.50
27667;DHT22;15074;50.940;5.282;2022-07-23T12:33:25;36.50;55.70
27667;DHT22;15074;50.940;5.282;2022-07-23T12:35:54;35.10;59.00
27667;DHT22;15074;50.940;5.282;2022-07-23T12:38:22;35.60;58.30
27667;DHT22;15074;50.940;5.282;2022-07-23T12:40:56;36.60;57.90
27667;DHT22;15074;50.940;5.282;2022-07-23T12:43:34;36.00;58.20
27667;DHT22;15074;50.940;5.282;2022-07-23T12:51:20;34.40;59.50
27667;DHT22;15074;50.940;5.282;2022-07-23T12:53:51;35.50;60.20
27667;DHT22;15074;50.940;5.282;2022-07-23T12:56:29;34.10;59.90
27667;DHT22;15074;50.940;5.282;2022-07-23T12:59:15;32.30;63.30
27667;DHT22;15074;50.940;5.282;2022-07-23T13:01:42;31.30;65.30
27667;DHT22;15074;50.940;5.282;2022-07-23T13:04:11;31.50;65.70
27667;DHT22;15074;50.940;5.282;2022-07-23T13:06:45;31.90;69.20
27667;DHT22;15074;50.940;5.282;2022-07-23T13:09:14;33.10;66.00
27667;DHT22;15074;50.940;5.282;2022-07-23T13:11:40;33.90;65.90
27667;DHT22;15074;50.940;5.282;2022-07-23T13:14:06;33.70;64.20
27667;DHT22;15074;50.940;5.282;2022-07-23T13:16:33;34.10;65.10
27667;DHT22;15074;50.940;5.282;2022-07-23T13:18:59;34.80;65.10
27667;DHT22;15074;50.940;5.282;2022-07-23T13:21:26;35.10;63.50
27667;DHT22;15074;50.940;5.282;2022-07-23T13:23:53;35.20;61.50
27667;DHT22;15074;50.940;5.282;2022-07-23T13:26:19;35.10;62.30
27667;DHT22;15074;50.940;5.282;2022-07-23T13:28:45;35.00;62.60
27667;DHT22;15074;50.940;5.282;2022-07-23T13:31:10;35.50;62.20
27667;DHT22;15074;50.940;5.282;2022-07-23T13:33:36;36.20;59.40
27667;DHT22;15074;50.940;5.282;2022-07-23T13:36:02;34.50;61.10
27667;DHT22;15074;50.940;5.282;2022-07-23T13:38:29;33.20;64.70
27667;DHT22;15074;50.940;5.282;2022-07-23T13:40:55;31.50;67.20
27667;DHT22;15074;50.940;5.282;2022-07-23T13:43:23;31.10;68.20
27667;DHT22;15074;50.940;5.282;2022-07-23T13:45:50;32.20;68.30
27667;DHT22;15074;50.940;5.282;2022-07-23T13:48:18;34.00;64.90
27667;DHT22;15074;50.940;5.282;2022-07-23T13:50:45;35.20;63.80
27667;DHT22;15074;50.940;5.282;2022-07-23T13:53:12;35.40;62.80
27667;DHT22;15074;50.940;5.282;2022-07-23T13:55:38;36.30;61.30
27667;DHT22;15074;50.940;5.282;2022-07-23T13:58:04;34.90;62.20
27667;DHT22;15074;50.940;5.282;2022-07-23T14:00:32;34.10;63.10
27667;DHT22;15074;50.940;5.282;2022-07-23T14:02:59;32.50;65.80
27667;DHT22;15074;50.940;5.282;2022-07-23T14:05:24;33.30;66.20
27667;DHT22;15074;50.940;5.282;2022-07-23T14:07:50;34.00;65.40
27667;DHT22;15074;50.940;5.282;2022-07-23T14:10:18;34.60;63.10
27667;DHT22;15074;50.940;5.282;2022-07-23T14:12:44;35.10;62.80
27667;DHT22;15074;50.940;5.282;2022-07-23T14:15:10;35.30;63.60
27667;DHT22;15074;50.940;5.282;2022-07-23T14:17:38;35.30;62.20
27667;DHT22;15074;50.940;5.282;2022-07-23T14:20:05;32.30;65.20
27667;DHT22;15074;50.940;5.282;2022-07-23T14:22:31;31.30;68.40
27667;DHT22;15074;50.940;5.282;2022-07-23T14:24:57;30.70;71.10
27667;DHT22;15074;50.940;5.282;2022-07-23T14:27:24;31.60;69.20
27667;DHT22;15074;50.940;5.282;2022-07-23T14:29:50;32.80;68.50
27667;DHT22;15074;50.940;5.282;2022-07-23T14:32:15;33.40;66.10
27667;DHT22;15074;50.940;5.282;2022-07-23T14:34:41;33.90;65.40
27667;DHT22;15074;50.940;5.282;2022-07-23T14:37:07;34.00;64.50
27667;DHT22;15074;50.940;5.282;2022-07-23T14:39:33;33.20;65.60
27667;DHT22;15074;50.940;5.282;2022-07-23T14:41:58;33.10;65.80
27667;DHT22;15074;50.940;5.282;2022-07-23T14:44:24;31.80;66.60
27667;DHT22;15074;50.940;5.282;2022-07-23T14:46:49;31.70;69.50
27667;DHT22;15074;50.940;5.282;2022-07-23T14:49:15;32.50;68.90
27667;DHT22;15074;50.940;5.282;2022-07-23T14:51:41;32.70;67.10
27667;DHT22;15074;50.940;5.282;2022-07-23T14:54:08;33.00;67.50
27667;DHT22;15074;50.940;5.282;2022-07-23T14:56:33;32.80;66.90
27667;DHT22;15074;50.940;5.282;2022-07-23T14:59:01;31.40;67.40
27667;DHT22;15074;50.940;5.282;2022-07-23T15:01:27;31.00;70.60
27667;DHT22;15074;50.940;5.282;2022-07-23T15:03:52;30.50;69.90
27667;DHT22;15074;50.940;5.282;2022-07-23T15:06:18;30.60;71.00
27667;DHT22;15074;50.940;5.282;2022-07-23T15:08:44;30.40;70.40
27667;DHT22;15074;50.940;5.282;2022-07-23T15:11:09;30.50;72.00
27667;DHT22;15074;50.940;5.282;2022-07-23T15:13:36;30.80;71.70
27667;DHT22;15074;50.940;5.282;2022-07-23T15:16:03;30.70;70.50
27667;DHT22;15074;50.940;5.282;2022-07-23T15:18:29;30.50;71.20
27667;DHT22;15074;50.940;5.282;2022-07-23T15:20:55;30.50;71.50
27667;DHT22;15074;50.940;5.282;2022-07-23T15:23:21;29.60;74.30
27667;DHT22;15074;50.940;5.282;2022-07-23T15:25:46;29.90;73.70
27667;DHT22;15074;50.940;5.282;2022-07-23T15:28:12;29.20;74.40
27667;DHT22;15074;50.940;5.282;2022-07-23T15:30:37;28.90;74.90
27667;DHT22;15074;50.940;5.282;2022-07-23T15:33:04;28.80;75.50
27667;DHT22;15074;50.940;5.282;2022-07-23T15:35:31;28.70;75.50
27667;DHT22;15074;50.940;5.282;2022-07-23T15:37:57;29.10;73.60
27667;DHT22;15074;50.940;5.282;2022-07-23T15:40:22;29.30;74.00
27667;DHT22;15074;50.940;5.282;2022-07-23T15:42:48;29.30;73.50
27667;DHT22;15074;50.940;5.282;2022-07-23T15:45:15;29.70;75.10
27667;DHT22;15074;50.940;5.282;2022-07-23T15:47:42;29.80;73.80
27667;DHT22;15074;50.940;5.282;2022-07-23T15:50:09;29.90;73.70
27667;DHT22;15074;50.940;5.282;2022-07-23T15:52:35;30.10;74.20
27667;DHT22;15074;50.940;5.282;2022-07-23T15:55:01;30.20;73.50
27667;DHT22;15074;50.940;5.282;2022-07-23T15:57:27;30.30;72.30
27667;DHT22;15074;50.940;5.282;2022-07-23T15:59:52;30.50;72.60
27667;DHT22;15074;50.940;5.282;2022-07-23T16:02:22;30.70;71.00
27667;DHT22;15074;50.940;5.282;2022-07-23T16:04:47;30.50;72.50
27667;DHT22;15074;50.940;5.282;2022-07-23T16:07:13;30.70;73.30
27667;DHT22;15074;50.940;5.282;2022-07-23T16:09:38;30.20;71.30
27667;DHT22;15074;50.940;5.282;2022-07-23T16:12:04;29.50;74.20
27667;DHT22;15074;50.940;5.282;2022-07-23T16:14:30;29.50;74.10